Middleton, Canada
Current Conditions -  °F | °C
As of 2:00 AM on Tuesday 21 Oct 2014 (Local Time) from CYZX Reporting Station
Clear Clear  
Wind Chill: 37°   Ceiling: Unl
Heat Index: 37°   Visibility: 15mi
Dew Point: 34°   Wind: 2mph
Humidity: 87%   Direction: 270°W
Pressure: 30.02"   Gusts: NA
Location:  44.94°N, 65.07°W
Report Text: CYZX 210500Z 27002KT 15SM SKC 03/01 A3002 RMK WNDY HILL 31008KT SLP167
Loading
Personal Weather Stations






























Interactive Weather Map
Tropical Storm Tracking
New forecast layout! Learn more

10-Day Weather Forecast

Advertisements
Track Severe Weather on mobile